Погода Девичья Дубравана неделю

Смоленская область, Россия

22 - 28 мая
  • 22мая
    Сегодня
    +10°
    +24°
    Облачно с прояснениями
    ВремяПогодаТемператураВлажностьДавлениеВетер, м/сВероятность осадков
    00:00Небольшая облачность+12°C93 %749 мм1.7 м/с2 %
    03:00Ясно и безоблачно+11°C95 %749 мм1.7 м/с2 %
    06:00Ясно и безоблачно+12°C93 %749 мм2.1 м/с2 %
    09:00Ясно и безоблачно+19°C76 %750 мм1.6 м/с2 %
    12:00Практически безоблачно+23°C64 %750 мм2.2 м/с7 %
    15:00Облачно с прояснениями+20°C79 %750 мм2.1 м/с43 %
    18:00Облачно с прояснениями+20°C72 %749 мм3.2 м/с32 %
    21:00Ясно и безоблачно+17°C83 %750 мм2.5 м/с2 %
  • 23мая
    Четверг
    +9°
    +23°
    Ясно и безоблачно
    ВремяПогодаТемператураВлажностьДавлениеВетер, м/сВероятность осадков
    00:00Ясно и безоблачно+13°C93 %750 мм2.8 м/с2 %
    03:00Ясно и безоблачно+12°C92 %751 мм3.2 м/с2 %
    06:00Ясно и безоблачно+11°C70 %752 мм4.3 м/с2 %
    09:00Ясно и безоблачно+17°C62 %753 мм4.3 м/с2 %
    12:00Ясно и безоблачно+22°C51 %753 мм5.2 м/с2 %
    15:00Ясно и безоблачно+23°C45 %753 мм4.9 м/с2 %
    18:00Ясно и безоблачно+22°C46 %753 мм4.9 м/с2 %
    21:00Ясно и безоблачно+17°C56 %754 мм4.0 м/с2 %
  • 24мая
    Пятница
    +8°
    +22°
    Ясно и безоблачно
    ВремяПогодаТемператураВлажностьДавлениеВетер, м/сВероятность осадков
    00:00Ясно и безоблачно+13°C59 %755 мм4.1 м/с2 %
    03:00Ясно и безоблачно+11°C63 %756 мм3.9 м/с2 %
    06:00Ясно и безоблачно+10°C63 %757 мм4.0 м/с2 %
    09:00Ясно и безоблачно+15°C55 %757 мм4.1 м/с2 %
    12:00Ясно и безоблачно+20°C45 %757 мм4.2 м/с2 %
    15:00Ясно и безоблачно+21°C41 %757 мм4.1 м/с2 %
    18:00Ясно и безоблачно+21°C42 %756 мм3.8 м/с2 %
    21:00Ясно и безоблачно+15°C58 %756 мм2.8 м/с2 %
  • 25мая
    Суббота
    +8°
    +23°
    Ясно и безоблачно
    ВремяПогодаТемператураВлажностьДавлениеВетер, м/сВероятность осадков
    00:00Ясно и безоблачно+11°C66 %756 мм3.1 м/с2 %
    03:00Ясно и безоблачно+10°C69 %756 мм2.9 м/с2 %
    06:00Ясно и безоблачно+9°C69 %756 мм2.7 м/с2 %
    09:00Ясно и безоблачно+16°C55 %756 мм2.6 м/с2 %
    12:00Ясно и безоблачно+22°C43 %756 мм2.9 м/с2 %
    15:00Ясно и безоблачно+22°C39 %755 мм3.1 м/с3 %
    18:00Ясно и безоблачно+23°C42 %754 мм2.7 м/с5 %
    21:00Ясно и безоблачно+16°C66 %753 мм2.0 м/с2 %
  • 26мая
    Воскресенье
    +9°
    +24°
    Небольшая облачность
    ВремяПогодаТемператураВлажностьДавлениеВетер, м/сВероятность осадков
    00:00Ясно и безоблачно+12°C73 %754 мм2.0 м/с2 %
    03:00Ясно и безоблачно+9°C77 %754 мм2.0 м/с2 %
    06:00Ясно и безоблачно+10°C81 %754 мм1.7 м/с2 %
    09:00Облачно с прояснениями+18°C62 %754 мм0.8 м/с2 %
    12:00Облачно с прояснениями+22°C41 %754 мм1.1 м/с2 %
    15:00Небольшая облачность+23°C40 %754 мм0.8 м/с4 %
    18:00Ясно и безоблачно+24°C40 %753 мм0.7 м/с3 %
    21:00Ясно и безоблачно+20°C48 %754 мм0.7 м/с3 %
Мы используем cookies
Соглашаюсь